Time;durP1;ratioP1;P1;durP2;ratioP2;P2;SDS_P1;SDS_P2;PMS_P1;PMS_P2;Temp;Humidity;BMP_temperature;BMP_pressure;BME280_temperature;BME280_humidity;BME280_pressure;Samples;Min_cycle;Max_cycle;Signal;HPM_P1;HPM_P2
2022/01/29 00:02:09;;;;;;;8.65;1.87;;;;;;;6.22;51.88;99057.72;5298589;27;20477;-78
2022/01/29 00:04:36;;;;;;;7.30;1.48;;;;;;;5.91;53.37;99058.00;5299217;27;20049;-78
2022/01/29 00:07:03;;;;;;;6.97;1.67;;;;;;;6.46;51.63;99060.06;5299199;27;20536;-78
2022/01/29 00:09:30;;;;;;;8.80;1.92;;;;;;;5.60;54.06;99059.88;5298803;27;20112;-78
2022/01/29 00:11:57;;;;;;;8.55;1.65;;;;;;;5.39;54.44;99050.63;5299690;27;20069;-78
2022/01/29 00:14:24;;;;;;;6.68;1.67;;;;;;;5.25;55.51;99056.72;5300130;27;20059;-78
2022/01/29 00:16:51;;;;;;;;;;;;;;;5.66;54.17;99051.34;5300084;27;20108;-78
2022/01/29 00:19:17;;;;;;;7.12;1.65;;;;;;;5.08;56.33;99054.22;5300385;27;19968;-78
2022/01/29 00:21:44;;;;;;;;;;;;;;;5.54;54.62;99057.38;5300279;27;20117;-78
2022/01/29 00:24:11;;;;;;;2.12;0.85;;;;;;;6.15;53.42;99053.50;5299922;27;19968;-78
2022/01/29 00:26:38;;;;;;;9.55;1.85;;;;;;;6.33;52.97;99055.91;5300254;27;20088;-78
2022/01/29 00:29:15;;;;;;;5.90;1.77;;;;;;;6.31;52.71;99068.75;5300201;27;20417;-78
2022/01/29 00:31:43;;;;;;;5.37;1.75;;;;;;;5.97;53.43;99060.53;5299387;27;20113;-78
2022/01/29 00:34:10;;;;;;;9.35;1.92;;;;;;;6.63;51.08;99063.31;5300162;27;20075;-78
2022/01/29 00:36:36;;;;;;;9.60;2.17;;;;;;;4.89;55.60;99062.00;5300177;27;20049;-78
2022/01/29 00:39:04;;;;;;;7.78;1.50;;;;;;;5.59;53.72;99059.91;5299863;27;20088;-78
2022/01/29 00:41:31;;;;;;;8.20;2.00;;;;;;;5.66;53.67;99071.81;5299947;27;20357;-78
2022/01/29 00:43:58;;;;;;;6.32;1.60;;;;;;;5.97;52.39;99067.34;5299735;27;20104;-78
2022/01/29 00:46:25;;;;;;;12.25;2.28;;;;;;;6.11;51.30;99062.94;5300166;27;20050;-78
2022/01/29 00:48:52;;;;;;;10.77;1.87;;;;;;;6.33;51.02;99066.16;5300148;27;20092;-78
2022/01/29 00:51:19;;;;;;;;;;;;;;;6.21;50.50;99074.81;5299830;27;20067;-78
2022/01/29 00:53:45;;;;;;;5.57;1.25;;;;;;;5.67;53.03;99064.13;5300144;27;19984;-78
2022/01/29 00:56:12;;;;;;;;;;;;;;;5.84;52.51;99078.50;5300433;27;20101;-78
2022/01/29 00:58:40;;;;;;;8.02;1.62;;;;;;;4.99;56.40;99082.38;5299997;26;20048;-78
2022/01/29 01:01:07;;;;;;;4.95;1.33;;;;;;;3.74;68.70;99086.00;5299794;27;20552;-78
2022/01/29 01:03:34;;;;;;;4.80;1.27;;;;;;;2.83;75.23;99133.28;5300080;27;20053;-78
2022/01/29 01:06:02;;;;;;;9.25;2.08;;;;;;;2.98;76.25;99124.87;5299567;27;20055;-78
2022/01/29 01:08:29;;;;;;;2.83;0.93;;;;;;;2.54;79.42;99165.38;5300014;27;20077;-78
2022/01/29 01:10:56;;;;;;;2.30;0.80;;;;;;;2.06;82.36;99164.16;5299885;27;20395;-78
2022/01/29 01:13:23;;;;;;;3.10;1.15;;;;;;;2.36;83.01;99181.38;5299545;27;20116;-78
2022/01/29 01:15:50;;;;;;;3.92;1.75;;;;;;;1.65;87.29;99162.03;5299944;27;20097;-78
2022/01/29 01:18:17;;;;;;;2.42;0.90;;;;;;;2.70;82.69;99158.69;5299974;27;20392;-78
2022/01/29 01:20:44;;;;;;;2.75;1.10;;;;;;;2.24;82.66;99140.53;5299453;27;20110;-78
2022/01/29 01:23:11;;;;;;;;;;;;;;;3.31;78.69;99142.03;5280892;27;20057;-78
2022/01/29 01:25:38;;;;;;;4.05;1.27;;;;;;;3.28;76.95;99131.78;5300178;26;20004;-78
2022/01/29 01:28:05;;;;;;;;;;;;;;;3.88;73.43;99129.41;5299906;27;20343;-78
2022/01/29 01:30:32;;;;;;;3.72;1.05;;;;;;;4.60;69.72;99131.09;5299631;27;19972;-78
2022/01/29 01:33:01;;;;;;;4.90;1.15;;;;;;;4.11;70.18;99135.38;5280009;27;20432;-78
2022/01/29 01:35:34;;;;;;;6.68;1.60;;;;;;;3.76;70.95;99130.22;5299953;27;20046;-78
2022/01/29 01:38:12;;;;;;;8.15;2.30;;;;;;;3.28;72.66;99125.84;5300015;27;20423;-78
2022/01/29 01:40:42;;;;;;;7.60;1.42;;;;;;;3.45;71.46;99124.19;5299483;27;20052;-78
2022/01/29 01:43:09;;;;;;;7.05;1.83;;;;;;;4.15;67.91;99120.88;5280863;27;20058;-78
2022/01/29 01:45:36;;;;;;;9.00;1.65;;;;;;;4.05;67.99;99123.47;5300019;27;20077;-78
2022/01/29 01:48:05;;;;;;;6.68;1.70;;;;;;;3.98;67.55;99121.75;5299446;27;20530;-78
2022/01/29 01:50:36;;;;;;;8.60;1.80;;;;;;;3.94;67.98;99114.09;5299628;27;20116;-78
2022/01/29 01:53:04;;;;;;;6.45;1.98;;;;;;;3.80;67.28;99115.75;5299762;27;20059;-78
2022/01/29 01:55:32;;;;;;;3.15;1.25;;;;;;;3.20;69.68;99097.78;5299501;27;20050;-78
2022/01/29 01:57:59;;;;;;;11.30;2.00;;;;;;;3.82;67.48;99101.28;5299914;27;20077;-78
2022/01/29 02:00:27;;;;;;;9.75;2.65;;;;;;;3.59;68.51;99094.44;5299751;27;20122;-78
2022/01/29 02:02:54;;;;;;;7.97;1.55;;;;;;;3.73;67.93;99103.00;5299476;27;20439;-78
2022/01/29 02:05:21;;;;;;;9.98;2.00;;;;;;;3.87;67.59;99097.91;5299839;27;20063;-78
2022/01/29 02:07:49;;;;;;;9.50;1.25;;;;;;;3.76;67.08;99097.91;5299825;27;20072;-78
2022/01/29 02:10:18;;;;;;;6.45;2.03;;;;;;;3.81;66.91;99095.34;5299296;27;20128;-78
2022/01/29 02:12:53;;;;;;;13.30;2.45;;;;;;;3.66;67.57;99088.53;5299922;27;20048;-78
2022/01/29 02:15:21;;;;;;;4.70;1.52;;;;;;;3.46;68.69;99083.38;5299372;27;20636;-78
2022/01/29 02:17:48;;;;;;;8.60;1.75;;;;;;;3.51;68.42;99067.22;5299836;27;20429;-78
2022/01/29 02:20:20;;;;;;;11.05;2.00;;;;;;;2.97;70.45;99074.72;5299744;27;20103;-78
2022/01/29 02:22:47;;;;;;;9.63;2.30;;;;;;;3.34;69.11;99057.00;5299441;27;20406;-78
2022/01/29 02:25:34;;;;;;;9.15;1.77;;;;;;;3.62;68.22;99065.56;5299896;27;20045;-78
2022/01/29 02:28:03;;;;;;;11.68;1.80;;;;;;;4.00;66.02;99057.91;5299864;27;20730;-78
2022/01/29 02:30:33;;;;;;;8.70;1.62;;;;;;;3.47;67.75;99061.25;5298977;27;20112;-78
2022/01/29 02:33:03;;;;;;;4.10;1.40;;;;;;;3.40;68.13;99062.97;5299723;27;20117;-78
2022/01/29 02:35:31;;;;;;;5.35;1.37;;;;;;;3.10;69.26;99065.44;5299528;27;20051;-78
2022/01/29 02:37:58;;;;;;;9.63;2.05;;;;;;;3.46;68.05;99067.22;5299193;27;20070;-78
2022/01/29 02:40:26;;;;;;;8.40;1.80;;;;;;;3.43;67.81;99068.06;5299535;27;20065;-78
2022/01/29 02:42:55;;;;;;;7.95;1.85;;;;;;;3.58;67.22;99080.00;5299672;27;20121;-78
2022/01/29 02:45:22;;;;;;;6.90;1.42;;;;;;;3.77;66.47;99080.88;5299294;27;20045;-78
2022/01/29 02:47:49;;;;;;;13.10;2.17;;;;;;;3.43;66.93;99077.44;5299781;27;20124;-78
2022/01/29 02:50:16;;;;;;;7.28;2.28;;;;;;;4.44;63.37;99085.09;5299122;27;20511;-78
2022/01/29 02:52:43;;;;;;;5.87;1.40;;;;;;;3.90;65.55;99082.56;5299789;27;20116;-78
2022/01/29 02:55:10;;;;;;;10.73;2.83;;;;;;;4.45;63.21;99081.69;5299548;27;20505;-78
2022/01/29 02:57:37;;;;;;;10.00;2.20;;;;;;;4.53;62.71;99083.38;5299298;27;20485;-78
2022/01/29 03:00:06;;;;;;;;;;;;;;;3.78;65.17;99070.66;5299858;27;20069;-78
2022/01/29 03:02:33;;;;;;;7.90;1.87;;;;;;;3.59;65.70;99074.03;5299648;27;19960;-78
2022/01/29 03:05:01;;;;;;;9.60;2.40;;;;;;;3.66;66.34;99077.47;5299249;27;20061;-78
2022/01/29 03:07:28;;;;;;;7.85;1.95;;;;;;;4.19;64.25;99077.47;5299567;27;20155;-78
2022/01/29 03:09:54;;;;;;;;;;;;;;;3.83;65.31;99078.34;5299972;27;20108;-78
2022/01/29 03:12:21;;;;;;;11.80;2.20;;;;;;;3.35;67.33;99064.66;5299128;27;19989;-78
2022/01/29 03:14:48;;;;;;;;;;;;;;;3.57;66.74;99080.00;5299730;27;20407;-78
2022/01/29 03:17:15;;;;;;;7.95;2.47;;;;;;;2.90;68.86;99076.41;5299519;27;19964;-78
2022/01/29 03:19:42;;;;;;;;;;;;;;;3.01;68.92;99083.25;5299413;27;20102;-78
2022/01/29 03:22:09;;;;;;;5.55;1.37;;;;;;;3.11;68.08;99067.97;5299468;26;19968;-77
2022/01/29 03:24:35;;;;;;;8.80;1.95;;;;;;;3.35;67.69;99074.84;5299578;27;20123;-78
2022/01/29 03:27:02;;;;;;;;;;;;;;;3.10;68.28;99058.63;5299464;27;20061;-78
2022/01/29 03:29:29;;;;;;;10.82;1.90;;;;;;;3.39;67.53;99085.91;5299582;27;20009;-78
2022/01/29 03:31:56;;;;;;;;;;;;;;;3.39;67.05;99081.66;5299312;27;20104;-78
2022/01/29 03:34:23;;;;;;;8.82;1.95;;;;;;;3.38;67.07;99079.09;5298984;27;19952;-78
2022/01/29 03:36:50;;;;;;;;;;;;;;;3.04;67.45;99089.19;5299747;27;20364;-78
2022/01/29 03:39:17;;;;;;;8.73;1.75;;;;;;;3.08;67.77;99085.81;5299226;27;20020;-78
2022/01/29 03:41:44;;;;;;;9.77;1.73;;;;;;;2.66;69.28;99086.50;5299249;27;20124;-78
2022/01/29 03:44:11;;;;;;;7.47;2.10;;;;;;;3.29;66.49;99091.81;5299477;27;20056;-78
2022/01/29 03:46:38;;;;;;;10.20;2.20;;;;;;;3.25;67.13;99062.06;5299777;27;20061;-78
2022/01/29 03:49:05;;;;;;;4.65;1.52;;;;;;;3.29;66.47;99081.63;5300363;27;20061;-78
2022/01/29 03:51:32;;;;;;;;;;;;;;;3.38;66.90;99081.66;5300464;27;20087;-78
2022/01/29 03:53:59;;;;;;;6.10;1.75;;;;;;;2.83;68.18;99084.84;5299935;27;19970;-78
2022/01/29 03:56:26;;;;;;;;;;;;;;;2.78;69.18;99071.25;5300629;27;20121;-78
2022/01/29 03:58:52;;;;;;;6.97;2.12;;;;;;;2.46;70.24;99066.00;5280971;27;20391;-78
2022/01/29 04:01:19;;;;;;;;;;;;;;;2.74;69.28;99068.66;5300017;27;20132;-78
2022/01/29 04:03:46;;;;;;;6.20;2.00;;;;;;;2.74;68.98;99069.53;5300513;26;20008;-78
2022/01/29 04:06:13;;;;;;;;;;;;;;;2.94;68.65;99068.75;5300585;27;20380;-78
2022/01/29 04:08:42;;;;;;;6.12;1.37;;;;;;;3.04;67.57;99070.50;5300046;27;19964;-78
2022/01/29 04:11:12;;;;;;;8.82;2.17;;;;;;;3.55;66.15;99071.50;5299993;27;20053;-78
2022/01/29 04:13:42;;;;;;;12.23;2.17;;;;;;;3.42;65.66;99073.19;5300200;27;20045;-78
2022/01/29 04:16:10;;;;;;;10.57;1.90;;;;;;;3.01;67.39;99058.59;5280895;27;20065;-78
2022/01/29 04:18:38;;;;;;;5.57;1.77;;;;;;;2.57;68.99;99066.06;5300308;27;20400;-78
2022/01/29 04:21:05;;;;;;;6.28;1.75;;;;;;;2.70;68.95;99062.72;5299951;27;20521;-78
2022/01/29 04:23:33;;;;;;;5.87;1.48;;;;;;;2.76;68.48;99062.72;5280520;26;20127;-78
2022/01/29 04:26:01;;;;;;;9.00;1.83;;;;;;;2.65;68.24;99066.91;5300165;27;20104;-78
2022/01/29 04:28:32;;;;;;;9.18;2.00;;;;;;;3.18;66.76;99067.12;5280508;27;20117;-78
2022/01/29 04:31:09;;;;;;;7.82;2.28;;;;;;;3.16;66.90;99057.78;5299677;27;20049;-78
2022/01/29 04:33:36;;;;;;;12.35;2.33;;;;;;;2.96;67.21;99059.41;5300255;27;20049;-78
2022/01/29 04:36:04;;;;;;;8.00;2.17;;;;;;;3.46;65.98;99062.13;5299707;27;20132;-78
2022/01/29 04:38:31;;;;;;;14.98;2.78;;;;;;;2.99;67.58;99065.41;5300145;27;20071;-78
2022/01/29 04:41:04;;;;;;;;;;;;;;;2.80;68.23;99054.25;5300190;27;20112;-78
2022/01/29 04:43:32;;;;;;;12.00;2.58;;;;;;;2.81;68.76;99057.66;5299874;27;19972;-78
2022/01/29 04:46:03;;;;;;;10.88;2.03;;;;;;;2.80;68.64;99038.97;5300300;27;20073;-78
2022/01/29 04:48:30;;;;;;;6.82;2.12;;;;;;;2.83;68.56;99051.72;5300035;27;20132;-78
2022/01/29 04:50:56;;;;;;;;;;;;;;;2.90;68.46;99043.25;5299800;27;20124;-77
2022/01/29 04:53:23;;;;;;;11.00;2.00;;;;;;;2.85;68.30;99036.44;5300086;27;20435;-77
2022/01/29 04:55:50;;;;;;;;;;;;;;;2.82;69.31;99044.06;5280984;27;20058;-77
2022/01/29 04:58:17;;;;;;;7.40;1.80;;;;;;;2.85;68.44;99042.38;5299544;27;20022;-78
2022/01/29 05:00:44;;;;;;;;;;;;;;;3.10;66.86;99045.03;5300072;27;20113;-78
2022/01/29 05:03:13;;;;;;;5.00;1.65;;;;;;;2.98;67.83;99044.97;5300278;26;19972;-78
2022/01/29 05:05:41;;;;;;;10.13;2.37;;;;;;;3.06;67.81;99054.34;5299667;27;20058;-78
2022/01/29 05:08:08;;;;;;;9.50;2.50;;;;;;;3.23;66.98;99061.22;5300038;27;20116;-78
2022/01/29 05:10:35;;;;;;;8.52;1.90;;;;;;;2.92;67.99;99062.81;5299471;27;20114;-77
2022/01/29 05:13:07;;;;;;;;;;;;;;;3.03;67.74;99066.25;5300505;27;20556;-78
2022/01/29 05:26:54;;;;;;;8.50;1.80;;;;;;;3.31;66.17;99064.66;5299745;27;20090;-78
2022/01/29 05:29:21;;;;;;;5.57;1.77;;;;;;;3.21;66.73;99065.47;5283426;27;20510;-78
2022/01/29 05:31:51;;;;;;;7.43;3.10;;;;;;;3.16;67.00;99055.22;5299141;27;20069;-78
2022/01/29 05:34:19;;;;;;;11.20;2.00;;;;;;;3.29;66.56;99056.13;5299985;27;20048;-78
2022/01/29 05:36:46;;;;;;;12.13;4.05;;;;;;;2.97;66.95;99056.00;5280475;27;20058;-78
2022/01/29 05:39:14;;;;;;;8.65;2.95;;;;;;;3.10;66.40;99060.34;5299512;27;20115;-78
2022/01/29 05:41:41;;;;;;;12.70;2.35;;;;;;;3.02;66.70;99067.94;5299628;27;20113;-78
2022/01/29 05:44:08;;;;;;;;;;;;;;;2.85;68.09;99072.13;5300249;27;20104;-78
2022/01/29 05:46:35;;;;;;;9.32;1.70;;;;;;;3.23;66.18;99082.47;5299701;27;19964;-78
2022/01/29 05:49:02;;;;;;;;;;;;;;;2.73;67.63;99084.81;5300282;27;20116;-78
2022/01/29 05:51:30;;;;;;;5.65;1.80;;;;;;;3.38;65.84;99087.59;5299721;27;20406;-78
2022/01/29 05:54:02;;;;;;;8.63;2.15;;;;;;;2.46;67.48;99088.91;5299593;27;20041;-78
2022/01/29 05:56:29;;;;;;;5.90;1.58;;;;;;;2.71;66.74;99095.00;5299901;27;20128;-78
2022/01/29 05:58:57;;;;;;;7.57;2.08;;;;;;;2.92;65.56;99098.50;5299924;27;20113;-78
2022/01/29 06:01:24;;;;;;;10.85;2.62;;;;;;;2.81;65.07;99101.00;5299099;27;20144;-78
2022/01/29 06:03:51;;;;;;;10.07;1.87;;;;;;;3.18;64.04;99109.63;5300018;27;20051;-78
2022/01/29 06:06:18;;;;;;;9.77;2.20;;;;;;;3.26;62.74;99107.13;5299915;27;20117;-78
2022/01/29 06:08:45;;;;;;;;;;;;;;;2.69;63.66;99122.16;5299276;27;20115;-77
2022/01/29 06:11:12;;;;;;;4.12;1.20;;;;;;;3.12;62.64;99127.50;5299867;26;20011;-78
2022/01/29 06:13:39;;;;;;;;;;;;;;;3.05;62.52;99125.75;5299942;27;20431;-78
2022/01/29 06:16:06;;;;;;;4.80;1.30;;;;;;;3.95;59.18;99137.06;5299686;27;20020;-78
2022/01/29 06:18:33;;;;;;;7.68;1.98;;;;;;;3.92;57.92;99138.75;5299845;27;20111;-78
2022/01/29 06:21:08;;;;;;;12.63;2.20;;;;;;;3.76;58.89;99135.34;5299187;27;20112;-78
2022/01/29 06:23:37;;;;;;;5.75;1.58;;;;;;;4.07;57.90;99146.44;5299830;27;20064;-78
2022/01/29 06:26:09;;;;;;;6.55;1.40;;;;;;;3.56;59.08;99154.84;5299823;27;20077;-78
2022/01/29 06:28:37;;;;;;;10.95;1.75;;;;;;;3.27;60.31;99145.38;5299342;27;20068;-78
2022/01/29 06:31:05;;;;;;;8.45;1.85;;;;;;;2.81;62.93;99152.81;5299167;27;20174;-78
2022/01/29 06:33:32;;;;;;;7.55;2.30;;;;;;;3.09;62.37;99153.84;5299807;27;20093;-78
2022/01/29 06:35:59;;;;;;;8.52;1.85;;;;;;;3.02;62.46;99157.19;5279779;27;20075;-78
2022/01/29 06:38:26;;;;;;;;;;;;;;;3.67;60.15;99151.47;5300115;27;20119;-78
2022/01/29 06:40:53;;;;;;;10.95;2.05;;;;;;;4.81;56.53;99150.66;5299483;27;20023;-78
2022/01/29 06:43:20;;;;;;;10.70;2.50;;;;;;;4.61;56.94;99155.78;5299526;27;20049;-78
2022/01/29 06:45:47;;;;;;;13.35;2.58;;;;;;;5.15;55.68;99163.34;5299694;27;20071;-78
2022/01/29 06:48:17;;;;;;;9.15;2.45;;;;;;;4.83;56.25;99159.16;5299698;27;20364;-78
2022/01/29 06:50:44;;;;;;;7.30;1.90;;;;;;;5.10;56.24;99163.34;5299166;27;20108;-78
2022/01/29 06:53:11;;;;;;;9.05;2.10;;;;;;;5.10;56.22;99167.59;5299788;27;20050;-78
2022/01/29 06:55:38;;;;;;;7.85;2.17;;;;;;;4.86;58.09;99174.50;5299653;27;20068;-78
2022/01/29 06:58:05;;;;;;;12.93;2.70;;;;;;;4.71;59.13;99163.47;5299425;27;20075;-79
2022/01/29 07:00:52;;;;;;;10.10;2.25;;;;;;;4.39;59.69;99176.25;5299200;27;20053;-79
2022/01/29 07:03:19;;;;;;;10.27;3.65;;;;;;;4.56;59.84;99177.09;5299283;27;20490;-79
2022/01/29 07:05:48;;;;;;;12.93;2.40;;;;;;;5.69;56.49;99182.75;5299607;27;20057;-79
2022/01/29 07:08:15;;;;;;;13.23;2.33;;;;;;;5.90;55.78;99184.38;5299581;27;20066;-79
2022/01/29 07:10:44;;;;;;;11.12;2.40;;;;;;;6.07;55.16;99181.72;5298978;27;20147;-78
2022/01/29 07:13:11;;;;;;;9.38;2.50;;;;;;;6.41;53.67;99184.03;5299547;27;20088;-78
2022/01/29 07:15:39;;;;;;;12.77;2.50;;;;;;;6.94;52.57;99183.53;5299495;27;20065;-78
2022/01/29 07:18:06;;;;;;;14.68;2.12;;;;;;;7.23;50.96;99191.81;5299268;27;20112;-78
2022/01/29 07:20:33;;;;;;;19.55;3.08;;;;;;;7.45;50.59;99192.41;5299187;27;20112;-78
2022/01/29 07:23:00;;;;;;;8.88;2.03;;;;;;;7.94;49.80;99196.03;5299552;27;20045;-78
2022/01/29 07:25:27;;;;;;;11.90;2.30;;;;;;;8.23;49.34;99193.06;5299153;27;20053;-78
2022/01/29 07:27:53;;;;;;;9.93;2.25;;;;;;;9.72;45.28;99186.94;5299380;27;20132;-79
2022/01/29 07:30:20;;;;;;;12.73;2.67;;;;;;;9.28;45.24;99194.69;5299029;27;20093;-79
2022/01/29 07:32:47;;;;;;;7.95;2.00;;;;;;;9.96;44.55;99193.31;5298981;27;20055;-78
2022/01/29 07:35:15;;;;;;;9.75;2.58;;;;;;;11.17;41.95;99199.84;5299316;27;20712;-79
2022/01/29 07:37:41;;;;;;;8.88;2.33;;;;;;;10.77;41.61;99188.84;5299489;27;20071;-79
2022/01/29 07:40:09;;;;;;;10.15;2.35;;;;;;;13.29;36.74;99190.69;5298988;27;20127;-79
2022/01/29 07:42:36;;;;;;;11.85;2.45;;;;;;;13.38;36.34;99193.81;5279949;27;20049;-79
2022/01/29 07:45:04;;;;;;;12.30;2.47;;;;;;;13.00;36.97;99196.84;5298931;27;20057;-78
2022/01/29 07:47:31;;;;;;;8.27;2.15;;;;;;;12.69;37.45;99186.66;5299387;27;20081;-78
2022/01/29 07:49:57;;;;;;;12.55;2.87;;;;;;;11.83;38.48;99191.09;5299379;27;20100;-78
2022/01/29 07:52:24;;;;;;;11.93;2.45;;;;;;;12.21;37.77;99196.00;5298759;27;20114;-78
2022/01/29 07:54:51;;;;;;;10.00;2.58;;;;;;;12.30;37.56;99204.31;5299268;27;20071;-78
2022/01/29 07:57:18;;;;;;;11.07;2.67;;;;;;;11.15;39.73;99203.31;5299346;27;20161;-78
2022/01/29 07:59:45;;;;;;;11.73;2.53;;;;;;;10.54;41.36;99208.34;5298707;27;20056;-76
2022/01/29 08:02:12;;;;;;;10.20;2.47;;;;;;;11.04;40.54;99216.53;5298841;27;20100;-78
2022/01/29 08:04:39;;;;;;;9.30;2.30;;;;;;;10.61;41.20;99204.69;5299152;27;20061;-78
2022/01/29 08:07:06;;;;;;;9.55;2.28;;;;;;;10.87;41.14;99205.81;5298623;27;20065;-79
2022/01/29 08:09:33;;;;;;;13.55;2.65;;;;;;;10.88;40.60;99213.50;5299147;27;20763;-79
2022/01/29 08:12:00;;;;;;;;;;;;;;;11.05;40.97;99199.28;5300473;27;20053;-79
2022/01/29 08:14:27;;;;;;;11.32;2.40;;;;;;;10.96;40.99;99201.25;5310711;27;19940;-79
2022/01/29 08:16:54;;;;;;;13.45;2.97;;;;;;;11.06;40.64;99204.44;5309962;27;20036;-80
2022/01/29 08:19:21;;;;;;;10.88;2.28;;;;;;;11.54;39.80;99215.16;5305186;27;20057;-77
2022/01/29 08:21:48;;;;;;;7.82;1.87;;;;;;;11.00;40.06;99207.16;5298170;26;20052;-78
2022/01/29 08:24:15;;;;;;;12.95;2.72;;;;;;;11.56;39.66;99197.88;5299212;27;20062;-77
2022/01/29 08:26:41;;;;;;;12.13;2.60;;;;;;;11.28;40.43;99207.31;5298990;27;20440;-77
2022/01/29 08:29:08;;;;;;;13.52;2.53;;;;;;;9.89;43.00;99202.91;5298541;27;20132;-77
2022/01/29 08:31:35;;;;;;;10.45;2.25;;;;;;;10.06;43.00;99190.47;5298395;27;20049;-78
2022/01/29 08:34:03;;;;;;;12.40;2.90;;;;;;;10.19;42.71;99191.06;5299842;27;20072;-78
2022/01/29 08:36:30;;;;;;;12.32;2.12;;;;;;;9.42;44.29;99191.84;5299988;27;20112;-78
2022/01/29 08:38:58;;;;;;;7.47;2.05;;;;;;;9.16;44.95;99197.50;5300066;27;20063;-78
2022/01/29 08:41:25;;;;;;;11.35;2.45;;;;;;;9.57;43.86;99193.28;5299399;27;20042;-79
2022/01/29 08:43:52;;;;;;;12.27;2.22;;;;;;;9.43;44.02;99184.97;5300153;27;20057;-79
2022/01/29 08:46:19;;;;;;;11.30;2.50;;;;;;;10.17;42.64;99177.34;5300053;27;20431;-79
2022/01/29 08:48:46;;;;;;;13.40;2.45;;;;;;;10.82;41.22;99180.09;5299675;27;20396;-78
2022/01/29 08:51:13;;;;;;;14.57;2.47;;;;;;;10.71;40.69;99175.19;5299723;27;20059;-79
2022/01/29 08:53:41;;;;;;;11.12;2.08;;;;;;;10.64;41.34;99178.84;5300122;27;20121;-79
2022/01/29 08:56:08;;;;;;;11.73;2.53;;;;;;;10.39;41.32;99172.56;5299657;27;20066;-79
2022/01/29 08:58:35;;;;;;;12.65;2.28;;;;;;;10.31;41.39;99166.72;5299980;27;20058;-79
2022/01/29 09:01:07;;;;;;;9.55;2.30;;;;;;;9.44;43.80;99174.62;5299471;27;20363;-79
2022/01/29 09:03:35;;;;;;;9.95;2.45;;;;;;;9.42;44.28;99171.25;5299631;27;20056;-78
2022/01/29 09:06:03;;;;;;;9.93;2.47;;;;;;;8.54;45.44;99168.59;5300023;27;20128;-79
2022/01/29 09:08:30;;;;;;;10.90;2.53;;;;;;;8.93;45.03;99171.31;5300184;27;20064;-79
2022/01/29 09:10:58;;;;;;;10.32;2.40;;;;;;;8.93;45.59;99176.47;5299401;27;20093;-79
2022/01/29 09:13:25;;;;;;;11.35;2.45;;;;;;;9.34;44.89;99169.69;5300112;27;20065;-79
2022/01/29 09:15:53;;;;;;;9.90;2.37;;;;;;;10.29;42.30;99168.50;5299859;27;20061;-79
2022/01/29 09:18:20;;;;;;;8.48;2.35;;;;;;;9.81;43.18;99171.31;5299650;27;20052;-79
2022/01/29 09:20:47;;;;;;;12.43;2.12;;;;;;;10.97;40.04;99173.69;5299761;27;20049;-78
2022/01/29 09:23:14;;;;;;;14.32;2.53;;;;;;;11.01;39.98;99173.56;5299588;27;20539;-79
2022/01/29 09:25:42;;;;;;;11.93;2.70;;;;;;;11.59;38.63;99173.69;5280542;27;20101;-79
2022/01/29 09:28:12;;;;;;;11.95;2.53;;;;;;;9.37;43.01;99167.94;5299948;27;20119;-78
2022/01/29 09:30:40;;;;;;;7.97;2.20;;;;;;;10.25;41.82;99172.06;5299311;27;20498;-78
2022/01/29 09:33:07;;;;;;;11.73;2.55;;;;;;;10.50;41.17;99174.88;5299847;27;20065;-78
2022/01/29 09:35:34;;;;;;;12.50;2.42;;;;;;;9.81;42.56;99173.88;5299637;27;20124;-79
2022/01/29 09:38:01;;;;;;;12.43;3.17;;;;;;;10.20;41.91;99172.09;5299544;27;20105;-79
2022/01/29 09:40:28;;;;;;;11.65;2.67;;;;;;;10.37;41.94;99164.88;5280315;27;20098;-79
2022/01/29 09:42:57;;;;;;;8.73;2.37;;;;;;;10.80;40.58;99165.53;5299782;27;20061;-79
2022/01/29 09:45:25;;;;;;;9.32;2.33;;;;;;;10.24;41.59;99162.63;5299381;27;20117;-79
2022/01/29 09:48:01;;;;;;;7.07;2.10;;;;;;;10.68;40.49;99164.94;5280468;27;20057;-79
2022/01/29 09:50:33;;;;;;;11.15;2.20;;;;;;;11.49;38.86;99157.59;5299700;27;20121;-79
2022/01/29 09:53:00;;;;;;;7.35;1.92;;;;;;;11.35;38.46;99154.53;5299373;27;20113;-79
2022/01/29 09:55:29;;;;;;;11.75;2.22;;;;;;;11.64;38.28;99151.12;5299475;27;20109;-79
2022/01/29 09:57:56;;;;;;;8.32;1.90;;;;;;;11.83;37.35;99146.28;5299746;27;20569;-79
2022/01/29 10:00:24;;;;;;;8.85;1.90;;;;;;;11.48;38.03;99145.56;5299078;27;20069;-78
2022/01/29 10:03:20;;;;;;;11.30;2.20;;;;;;;11.93;37.33;99152.03;5299693;27;20116;-79
2022/01/29 10:05:52;;;;;;;7.37;1.90;;;;;;;11.31;37.89;99140.03;5303536;27;20061;-79
2022/01/29 10:08:20;;;;;;;9.60;1.98;;;;;;;11.45;38.10;99135.31;5299720;27;20108;-79
2022/01/29 10:10:54;;;;;;;10.70;2.40;;;;;;;11.68;37.55;99126.88;5299403;27;20096;-79
2022/01/29 10:13:36;;;;;;;8.95;2.17;;;;;;;12.56;36.39;99119.81;5299298;27;20058;-79
2022/01/29 10:16:21;;;;;;;13.15;3.20;;;;;;;12.01;36.89;99121.59;5299463;27;20120;-79
2022/01/29 10:18:59;;;;;;;11.35;1.75;;;;;;;12.20;37.04;99104.59;5299643;27;20443;-80
2022/01/29 10:21:29;;;;;;;6.85;2.00;;;;;;;12.04;37.30;99109.41;5279631;27;20107;-79
2022/01/29 10:24:04;;;;;;;7.62;2.00;;;;;;;11.87;37.37;99115.09;5299719;27;20072;-79
2022/01/29 10:26:35;;;;;;;10.65;2.62;;;;;;;12.34;36.70;99115.34;5299291;27;20136;-79
2022/01/29 10:29:06;;;;;;;9.70;2.45;;;;;;;12.85;35.37;99117.06;5299642;27;20419;-79
2022/01/29 10:31:49;;;;;;;7.65;2.03;;;;;;;13.00;35.62;99105.31;5299220;27;20057;-79
2022/01/29 10:34:19;;;;;;;14.63;2.53;;;;;;;13.07;35.23;99111.94;5299342;27;20332;-80
2022/01/29 10:37:13;;;;;;;10.70;2.28;;;;;;;12.94;35.07;99110.72;5280044;27;20357;-79
2022/01/29 10:39:41;;;;;;;11.23;2.90;;;;;;;13.51;34.25;99097.41;5299651;27;20050;-79
2022/01/29 10:42:24;;;;;;;5.87;1.77;;;;;;;13.85;33.71;99096.94;5298978;27;20054;-79
2022/01/29 10:44:54;;;;;;;8.07;2.15;;;;;;;14.04;32.79;99088.44;5299590;27;20081;-79
2022/01/29 10:47:22;;;;;;;9.45;2.10;;;;;;;13.53;33.51;99076.59;5299331;27;20057;-79
2022/01/29 10:50:02;;;;;;;11.12;2.30;;;;;;;12.60;35.42;99067.88;5299513;27;20065;-79
2022/01/29 10:52:34;;;;;;;11.00;2.30;;;;;;;13.70;33.87;99070.75;5299464;27;20060;-79
2022/01/29 10:55:04;;;;;;;8.93;2.40;;;;;;;13.11;35.04;99066.06;5298880;27;20493;-79
2022/01/29 10:57:32;;;;;;;9.48;2.45;;;;;;;13.10;35.31;99060.03;5299590;27;20073;-79
2022/01/29 11:00:00;;;;;;;6.85;2.30;;;;;;;12.94;35.25;99054.56;5299519;27;20053;-79
2022/01/29 11:02:30;;;;;;;14.20;2.40;;;;;;;12.15;36.32;99060.78;5279677;27;20045;-79
2022/01/29 11:05:00;;;;;;;9.98;2.35;;;;;;;12.34;36.37;99057.56;5299445;27;20667;-79
2022/01/29 11:07:29;;;;;;;12.40;2.35;;;;;;;12.29;36.01;99059.47;5299608;27;20095;-78
2022/01/29 11:09:56;;;;;;;11.90;2.35;;;;;;;11.37;37.54;99056.31;5299067;27;20466;-79
2022/01/29 11:12:25;;;;;;;9.15;2.83;;;;;;;10.83;39.22;99051.84;5299400;27;20096;-79
2022/01/29 11:14:58;;;;;;;8.13;2.40;;;;;;;11.22;38.29;99061.03;5299236;27;20057;-80
2022/01/29 11:17:27;;;;;;;8.00;2.22;;;;;;;10.78;38.09;99043.41;5298955;27;20132;-80
2022/01/29 11:19:54;;;;;;;9.88;2.30;;;;;;;9.97;39.57;99045.47;5299341;27;20124;-79
2022/01/29 11:22:28;;;;;;;9.25;2.22;;;;;;;10.73;39.23;99048.66;5298730;27;20063;-79
2022/01/29 11:25:03;;;;;;;8.05;2.28;;;;;;;10.65;39.17;99043.72;5299396;27;20065;-79
2022/01/29 11:27:32;;;;;;;6.03;1.90;;;;;;;10.88;38.90;99037.09;5280176;27;20062;-79
2022/01/29 11:30:10;;;;;;;6.47;2.40;;;;;;;11.00;38.71;99039.31;5298662;27;20120;-79
2022/01/29 11:32:42;;;;;;;5.65;1.80;;;;;;;10.47;39.10;99028.75;5279986;26;20108;-79
2022/01/29 11:35:20;;;;;;;7.03;1.95;;;;;;;10.88;39.13;99030.19;5299414;27;20124;-79
2022/01/29 11:37:49;;;;;;;6.65;1.87;;;;;;;11.07;38.48;99027.09;5299101;27;20113;-79
2022/01/29 11:40:22;;;;;;;14.73;3.20;;;;;;;11.60;37.99;99030.63;5299203;27;20779;-78
2022/01/29 11:43:09;;;;;;;10.95;1.80;;;;;;;11.19;38.86;99014.66;5299073;27;20044;-79
2022/01/29 11:45:49;;;;;;;8.55;2.08;;;;;;;11.94;37.84;99014.91;5298940;27;20144;-79
2022/01/29 11:48:25;;;;;;;6.90;2.00;;;;;;;11.96;37.29;99004.50;5299315;27;20132;-79
2022/01/29 11:50:54;;;;;;;11.80;3.45;;;;;;;11.05;38.39;98996.09;5298569;27;20403;-79
2022/01/29 11:53:22;;;;;;;9.13;2.30;;;;;;;11.23;37.96;98990.41;5299096;27;20049;-79
2022/01/29 11:55:52;;;;;;;9.43;2.17;;;;;;;10.87;38.63;98988.94;5299030;27;20065;-79
2022/01/29 11:58:29;;;;;;;8.23;2.17;;;;;;;11.03;38.03;98992.72;5298751;27;20113;-79
2022/01/29 12:00:57;;;;;;;10.27;2.12;;;;;;;11.04;38.48;98997.00;5298712;27;20143;-79
2022/01/29 12:03:34;;;;;;;9.10;2.50;;;;;;;11.24;39.02;98989.50;5299027;27;20045;-79